Big Bear Station Historical Data
Daily Summary for May 16, 2017 Units:  English    Metric   Both
« Previous Day
Next Day »
Daily Weekly Monthly Yearly Custom
  High: Low: Average:
Temperature: 58.1 °F 31.6 °F 42.2 °F
Dew Point: 40.3 °F 28.7 °F 33.6 °F
Humidity: 90 % 38 % 73 %
Wind Speed: 5.8 mph 0.0 mph 2.3 mph
Wind Gust: -999.0 mph - -
Wind:- - WSW
Pressure: 30.04 in 29.93 in -
Precipitation: 0.00 in    
Historical Graphs
 
 
Tabular Data for May 16, 2017
Time Temperature Dew Point Pressure Wind Wind Speed Wind Gust Humidity Rainfall Rate (Hourly)
00:04 34.5 °F 30.5 °F 29.95 in Calm   -999.0 mph 85 % 0 in
00:19 34.9 °F 30.9 °F 29.96 in WNW 2.2 mph -999.0 mph 85 % 0 in
00:35 34.7 °F 30.7 °F 29.95 in NW 2.2 mph -999.0 mph 85 % 0 in
00:50 34.7 °F 31.2 °F 29.95 in Calm   -999.0 mph 87 % 0 in
01:05 34.5 °F 30.7 °F 29.95 in Calm   -999.0 mph 86 % 0 in
01:20 34.3 °F 30.5 °F 29.95 in ENE 1.7 mph -999.0 mph 86 % 0 in
01:35 34.3 °F 30.8 °F 29.95 in NW 1.1 mph -999.0 mph 87 % 0 in
01:51 34.5 °F 31.0 °F 29.95 in South 2.2 mph -999.0 mph 87 % 0 in
02:06 34.5 °F 31.0 °F 29.95 in WSW 1.1 mph -999.0 mph 87 % 0 in
02:21 34.5 °F 31.0 °F 29.94 in Calm   -999.0 mph 87 % 0 in
02:36 34.3 °F 30.8 °F 29.95 in SE 1.7 mph -999.0 mph 87 % 0 in
02:52 34.3 °F 30.5 °F 29.94 in South 3.2 mph -999.0 mph 86 % 0 in
03:07 34.3 °F 30.5 °F 29.94 in Calm   -999.0 mph 86 % 0 in
03:22 34.3 °F 30.5 °F 29.94 in Calm   -999.0 mph 86 % 0 in
03:37 34.3 °F 30.5 °F 29.94 in SSW 1.1 mph -999.0 mph 86 % 0 in
03:53 34.3 °F 30.3 °F 29.94 in SSE 1.7 mph -999.0 mph 85 % 0 in
04:08 34.3 °F 30.3 °F 29.93 in SSE 3.7 mph -999.0 mph 85 % 0 in
04:23 34.2 °F 30.2 °F 29.94 in Calm   -999.0 mph 85 % 0 in
04:38 34.0 °F 30.0 °F 29.94 in NW 1.7 mph -999.0 mph 85 % 0 in
04:53 33.4 °F 29.7 °F 29.94 in South 1.1 mph -999.0 mph 86 % 0 in
05:09 32.7 °F 29.5 °F 29.94 in Calm   -999.0 mph 88 % 0 in
05:24 32.4 °F 29.2 °F 29.94 in Calm   -999.0 mph 88 % 0 in
05:39 32.2 °F 29.3 °F 29.94 in Calm   -999.0 mph 89 % 0 in
05:54 31.6 °F 28.7 °F 29.94 in West 1.1 mph -999.0 mph 89 % 0 in
06:09 31.8 °F 29.2 °F 29.95 in Calm   -999.0 mph 90 % 0 in
06:25 32.5 °F 29.6 °F 29.96 in Calm   -999.0 mph 89 % 0 in
06:40 32.7 °F 29.5 °F 29.96 in SSE 2.2 mph -999.0 mph 88 % 0 in
06:55 33.8 °F 30.6 °F 29.97 in SSE 1.7 mph -999.0 mph 88 % 0 in
07:10 34.5 °F 30.7 °F 29.98 in South 2.2 mph -999.0 mph 86 % 0 in
07:26 34.7 °F 30.9 °F 29.98 in Calm   -999.0 mph 86 % 0 in
07:41 35.1 °F 31.3 °F 29.98 in Calm   -999.0 mph 86 % 0 in
07:57 36.5 °F 32.1 °F 29.98 in Calm   -999.0 mph 84 % 0 in
08:12 37.2 °F 31.6 °F 29.99 in Calm   -999.0 mph 80 % 0 in
08:27 39.2 °F 32.6 °F 29.99 in NW 3.7 mph -999.0 mph 77 % 0 in
08:42 40.6 °F 33.0 °F 30.00 in NW 3.2 mph -999.0 mph 74 % 0 in
08:57 41.0 °F 32.3 °F 30.00 in Calm   -999.0 mph 71 % 0 in
09:13 41.9 °F 32.5 °F 30.00 in NW 4.2 mph -999.0 mph 69 % 0 in
09:28 43.2 °F 31.8 °F 30.01 in Calm   -999.0 mph 64 % 0 in
09:43 44.6 °F 32.4 °F 30.01 in WSW 4.7 mph -999.0 mph 62 % 0 in
09:58 46.2 °F 32.7 °F 30.01 in Calm   -999.0 mph 59 % 0 in
10:13 46.8 °F 32.8 °F 30.01 in NNW 3.2 mph -999.0 mph 58 % 0 in
10:29 47.3 °F 31.9 °F 30.02 in North 4.2 mph -999.0 mph 55 % 0 in
10:44 47.8 °F 32.4 °F 30.02 in West 4.2 mph -999.0 mph 55 % 0 in
11:00 49.3 °F 32.9 °F 30.03 in WNW 3.2 mph -999.0 mph 53 % 0 in
11:15 50.9 °F 33.9 °F 30.03 in ESE 2.7 mph -999.0 mph 52 % 0 in
11:30 52.2 °F 33.6 °F 30.03 in East 1.7 mph -999.0 mph 49 % 0 in
12:01 54.9 °F 34.5 °F 30.03 in NW 5.8 mph -999.0 mph 46 % 0 in
12:16 55.6 °F 35.1 °F 30.04 in NE 5.3 mph -999.0 mph 46 % 0 in
12:32 56.5 °F 34.3 °F 30.04 in SSE 2.7 mph -999.0 mph 43 % 0 in
12:47 56.5 °F 31.8 °F 30.03 in NW 3.7 mph -999.0 mph 39 % 0 in
13:02 56.7 °F 33.3 °F 30.04 in NNW 4.7 mph -999.0 mph 41 % 0 in
13:18 57.2 °F 31.8 °F 30.04 in West 2.7 mph -999.0 mph 38 % 0 in
13:33 58.1 °F 33.3 °F 30.04 in NNW 4.7 mph -999.0 mph 39 % 0 in
13:49 57.7 °F 32.9 °F 30.04 in NW 5.8 mph -999.0 mph 39 % 0 in
14:04 58.1 °F 34.5 °F 30.04 in NNW 4.7 mph -999.0 mph 41 % 0 in
14:19 57.0 °F 40.0 °F 30.04 in NNW 5.8 mph -999.0 mph 53 % 0 in
14:34 52.3 °F 39.7 °F 30.04 in West 3.2 mph -999.0 mph 62 % 0 in
14:50 52.0 °F 40.2 °F 30.04 in WNW 5.3 mph -999.0 mph 64 % 0 in
15:05 51.3 °F 39.9 °F 30.04 in NW 4.7 mph -999.0 mph 65 % 0 in
15:20 49.8 °F 39.7 °F 30.04 in WNW 4.2 mph -999.0 mph 68 % 0 in
15:35 48.7 °F 40.1 °F 30.04 in West 3.7 mph -999.0 mph 72 % 0 in
15:51 49.6 °F 40.2 °F 30.04 in WNW 4.7 mph -999.0 mph 70 % 0 in
16:06 47.8 °F 39.2 °F 30.04 in WNW 4.2 mph -999.0 mph 72 % 0 in
16:21 48.7 °F 39.7 °F 30.04 in NW 4.7 mph -999.0 mph 71 % 0 in
16:36 50.5 °F 40.0 °F 30.04 in West 2.2 mph -999.0 mph 67 % 0 in
16:52 49.3 °F 40.3 °F 30.04 in WNW 4.2 mph -999.0 mph 71 % 0 in
17:07 50.2 °F 40.0 °F 30.04 in NW 4.7 mph -999.0 mph 68 % 0 in
17:22 47.5 °F 39.3 °F 30.04 in West 1.1 mph -999.0 mph 73 % 0 in
17:38 47.5 °F 38.9 °F 30.04 in NNW 2.7 mph -999.0 mph 72 % 0 in
17:53 48.2 °F 39.2 °F 30.03 in East 2.2 mph -999.0 mph 71 % 0 in
18:08 45.9 °F 38.8 °F 30.03 in West 2.2 mph -999.0 mph 76 % 0 in
18:23 43.3 °F 37.5 °F 30.03 in NW 3.7 mph -999.0 mph 80 % 0 in
18:38 41.7 °F 36.6 °F 30.04 in WNW 3.7 mph -999.0 mph 82 % 0 in
18:54 42.1 °F 36.7 °F 30.03 in NW 4.7 mph -999.0 mph 81 % 0 in
19:09 40.8 °F 36.0 °F 30.02 in West 1.7 mph -999.0 mph 83 % 0 in
19:25 39.9 °F 35.5 °F 30.02 in SSW 1.7 mph -999.0 mph 84 % 0 in
19:40 39.6 °F 35.5 °F 30.02 in SE 1.7 mph -999.0 mph 85 % 0 in
19:55 39.6 °F 35.8 °F 30.02 in NW 2.7 mph -999.0 mph 86 % 0 in
20:10 39.2 °F 35.1 °F 30.02 in Calm   -999.0 mph 85 % 0 in
20:26 39.4 °F 35.3 °F 30.03 in ESE 1.7 mph -999.0 mph 85 % 0 in
20:41 39.0 °F 34.3 °F 30.03 in East 1.1 mph -999.0 mph 83 % 0 in
20:56 41.0 °F 33.0 °F 30.03 in West 1.7 mph -999.0 mph 73 % 0 in
21:11 41.7 °F 32.3 °F 30.03 in Calm   -999.0 mph 69 % 0 in
21:27 42.1 °F 33.0 °F 30.04 in NNW 3.2 mph -999.0 mph 70 % 0 in
21:42 42.3 °F 33.2 °F 30.04 in West 3.7 mph -999.0 mph 70 % 0 in
21:57 42.6 °F 32.8 °F 30.04 in SSE 3.7 mph -999.0 mph 68 % 0 in
22:13 42.4 °F 33.3 °F 30.04 in ENE 3.7 mph -999.0 mph 70 % 0 in
22:28 42.4 °F 33.7 °F 30.04 in ESE 2.7 mph -999.0 mph 71 % 0 in
22:43 42.1 °F 33.7 °F 30.04 in SE 2.2 mph -999.0 mph 72 % 0 in
22:58 41.4 °F 33.4 °F 30.04 in NNW 2.7 mph -999.0 mph 73 % 0 in
23:13 41.2 °F 33.5 °F 30.03 in Calm   -999.0 mph 74 % 0 in
23:29 40.8 °F 33.8 °F 30.03 in Calm   -999.0 mph 76 % 0 in
23:44 40.6 °F 33.3 °F 30.02 in NNW 1.7 mph -999.0 mph 75 % 0 in
23:59 40.5 °F 33.2 °F 30.02 in ESE 2.2 mph -999.0 mph 75 % 0 in
Big Bear CA Weather
Compliments of Weather Underground - 1.5 mb